Time;durP1;ratioP1;P1;durP2;ratioP2;P2;SDS_P1;SDS_P2;PMS_P1;PMS_P2;Temp;Humidity;BMP_temperature;BMP_pressure;BME280_temperature;BME280_humidity;BME280_pressure;Samples;Min_cycle;Max_cycle;Signal;HPM_P1;HPM_P2
2023/06/13 00:01:22;;;;;;;7.85;5.03;;;;;;;;;;5021661;28;20036;-74
2023/06/13 00:03:49;;;;;;;6.45;4.82;;;;;;;;;;5029695;28;20033;-73
2023/06/13 00:06:15;;;;;;;9.27;5.60;;;;;;;;;;5029452;28;20528;-74
2023/06/13 00:08:42;;;;;;;5.50;4.53;;;;;;;;;;5029716;28;20029;-74
2023/06/13 00:11:08;;;;;;;9.32;5.65;;;;;;;;;;5029705;28;20033;-75
2023/06/13 00:13:34;;;;;;;9.48;5.15;;;;;;;;;;5030834;28;20026;-75
2023/06/13 00:16:00;;;;;;;6.93;4.82;;;;;;;;;;5029250;28;20376;-73
2023/06/13 00:18:30;;;;;;;9.25;5.40;;;;;;;;;;5029618;28;20120;-73
2023/06/13 00:20:58;;;;;;;7.57;5.05;;;;;;;;;;5031527;28;20025;-73
2023/06/13 00:23:24;;;;;;;10.68;5.35;;;;;;;;;;5031246;28;20025;-74
2023/06/13 00:25:50;;;;;;;6.65;5.15;;;;;;;;;;5031247;28;20022;-73
2023/06/13 00:28:16;;;;;;;7.38;4.63;;;;;;;;;;5030883;28;20096;-74
2023/06/13 00:30:43;;;;;;;9.77;5.50;;;;;;;;;;5027662;28;20100;-72
2023/06/13 00:33:15;;;;;;;5.57;4.72;;;;;;;;;;5029534;28;20021;-73
2023/06/13 00:35:41;;;;;;;7.47;5.15;;;;;;;;;;5030667;28;20029;-75
2023/06/13 00:38:07;;;;;;;10.73;5.75;;;;;;;;;;5030742;28;20096;-73
2023/06/13 00:40:34;;;;;;;7.35;4.70;;;;;;;;;;5030956;28;20030;-72
2023/06/13 00:43:00;;;;;;;8.20;5.22;;;;;;;;;;5031153;28;20435;-72
2023/06/13 00:45:26;;;;;;;7.97;5.20;;;;;;;;;;5030816;28;20030;-75
2023/06/13 00:47:55;;;;;;;5.63;5.00;;;;;;;;;;5030869;28;20022;-73
2023/06/13 00:50:21;;;;;;;8.73;4.82;;;;;;;;;;5030738;28;20026;-73
2023/06/13 00:52:48;;;;;;;8.45;5.28;;;;;;;;;;5030839;28;20109;-73
2023/06/13 00:55:14;;;;;;;8.48;5.68;;;;;;;;;;5030971;28;20025;-72
2023/06/13 00:57:40;;;;;;;5.80;4.95;;;;;;;;;;5029366;28;20496;-72
2023/06/13 01:00:06;;;;;;;8.35;5.40;;;;;;;;;;5030823;28;20056;-72
2023/06/13 01:02:33;;;;;;;9.13;4.78;;;;;;;;;;5030958;28;20104;-72
2023/06/13 01:05:02;;;;;;;9.55;5.38;;;;;;;;;;5030430;28;20022;-72
2023/06/13 01:07:29;;;;;;;7.65;5.30;;;;;;;;;;5030517;28;20026;-74
2023/06/13 01:09:55;;;;;;;6.28;5.00;;;;;;;;;;5030764;28;20472;-73
2023/06/13 01:12:27;;;;;;;9.70;4.97;;;;;;;;;;5030759;28;20340;-73
2023/06/13 01:15:08;;;;;;;6.72;5.15;;;;;;;;;;5030787;28;20021;-74
2023/06/13 01:17:42;;;;;;;8.50;5.03;;;;;;;;;;5030431;28;20025;-73
2023/06/13 01:20:13;;;;;;;5.72;4.95;;;;;;;;;;5031994;28;20175;-73
2023/06/13 01:22:52;;;;;;;7.85;5.35;;;;;;;;;;5018440;28;20025;-73
2023/06/13 01:25:24;;;;;;;8.73;5.15;;;;;;;;;;5034001;28;20400;-72
2023/06/13 01:27:53;;;;;;;8.23;5.20;;;;;;;;;;5033926;28;20026;-72
2023/06/13 01:30:20;;;;;;;9.35;5.60;;;;;;;;;;5033909;28;20020;-72
2023/06/13 01:32:47;;;;;;;7.55;5.80;;;;;;;;;;5034057;28;20093;-72
2023/06/13 01:35:14;;;;;;;6.88;5.25;;;;;;;;;;5033932;28;20026;-73
2023/06/13 01:37:40;;;;;;;6.35;5.43;;;;;;;;;;5033683;28;20035;-73
2023/06/13 01:40:09;;;;;;;6.32;5.38;;;;;;;;;;5033887;28;20083;-73
2023/06/13 01:42:35;;;;;;;5.80;5.15;;;;;;;;;;5032538;28;20104;-72
2023/06/13 01:45:02;;;;;;;8.68;5.70;;;;;;;;;;5033742;28;20117;-72
2023/06/13 01:47:40;;;;;;;8.75;4.88;;;;;;;;;;5045194;23;20053;-76
2023/06/13 01:50:13;;;;;;;9.05;5.28;;;;;;;;;;5033523;28;20080;-76
2023/06/13 01:52:53;;;;;;;7.00;5.20;;;;;;;;;;5016877;28;20399;-75
2023/06/13 01:55:31;;;;;;;9.95;5.38;;;;;;;;;;5024547;28;20113;-75
2023/06/13 01:58:11;;;;;;;7.82;5.63;;;;;;;;;;5006986;28;20395;-76
2023/06/13 02:00:39;;;;;;;6.15;5.28;;;;;;;;;;5012969;28;20443;-76
2023/06/13 02:03:05;;;;;;;7.13;4.70;;;;;;;;;;5012377;28;20026;-75
2023/06/13 02:05:31;;;;;;;6.95;5.25;;;;;;;;;;5013413;28;20101;-76
2023/06/13 02:07:57;;;;;;;7.20;5.32;;;;;;;;;;5013344;28;20101;-76
2023/06/13 02:10:24;;;;;;;7.45;5.45;;;;;;;;;;5011601;28;20189;-76
2023/06/13 02:12:50;;;;;;;9.00;5.10;;;;;;;;;;4997938;28;20032;-76
2023/06/13 02:15:16;;;;;;;7.72;6.00;;;;;;;;;;5012652;28;20101;-76
2023/06/13 02:17:42;;;;;;;10.77;5.05;;;;;;;;;;5013008;28;20464;-77
2023/06/13 02:20:08;;;;;;;8.95;6.18;;;;;;;;;;5013344;28;20021;-76
2023/06/13 02:22:34;;;;;;;8.80;5.63;;;;;;;;;;4996938;28;20033;-75
2023/06/13 02:25:01;;;;;;;7.35;5.75;;;;;;;;;;5006387;28;20029;-75
2023/06/13 02:27:27;;;;;;;10.90;5.50;;;;;;;;;;5002434;28;20400;-75
2023/06/13 02:29:54;;;;;;;6.38;5.15;;;;;;;;;;4999014;28;20029;-75
2023/06/13 02:32:22;;;;;;;7.07;5.32;;;;;;;;;;5010631;28;20014;-75
2023/06/13 02:34:49;;;;;;;9.98;5.30;;;;;;;;;;5013057;28;20120;-75
2023/06/13 02:37:15;;;;;;;8.48;5.78;;;;;;;;;;5004122;28;20049;-74
2023/06/13 02:39:41;;;;;;;9.05;4.72;;;;;;;;;;5005626;28;20050;-75
2023/06/13 02:42:07;;;;;;;7.25;5.43;;;;;;;;;;4995942;28;20058;-75
2023/06/13 02:44:33;;;;;;;9.18;5.50;;;;;;;;;;5009317;28;20456;-76
2023/06/13 02:46:59;;;;;;;6.47;5.00;;;;;;;;;;4998226;28;20069;-75
2023/06/13 02:49:25;;;;;;;5.88;4.70;;;;;;;;;;5002673;28;20031;-74
2023/06/13 02:51:51;;;;;;;6.60;4.80;;;;;;;;;;5006839;28;20025;-75
2023/06/13 02:54:18;;;;;;;7.57;5.15;;;;;;;;;;4995232;28;20030;-75
2023/06/13 02:56:44;;;;;;;8.63;5.57;;;;;;;;;;5007829;28;20030;-75
2023/06/13 02:59:10;;;;;;;5.70;5.03;;;;;;;;;;5000883;28;20029;-75
2023/06/13 03:01:36;;;;;;;9.23;4.90;;;;;;;;;;5000917;28;20026;-75
2023/06/13 03:04:02;;;;;;;6.97;5.15;;;;;;;;;;5006663;28;20030;-75
2023/06/13 03:06:30;;;;;;;6.75;4.70;;;;;;;;;;5001673;28;20088;-76
2023/06/13 03:08:58;;;;;;;6.95;5.05;;;;;;;;;;5012185;28;20100;-76
2023/06/13 03:11:25;;;;;;;11.27;7.38;;;;;;;;;;5002447;28;20018;-76
2023/06/13 03:13:51;;;;;;;7.13;5.40;;;;;;;;;;5006621;28;20057;-76
2023/06/13 03:16:21;;;;;;;6.05;5.20;;;;;;;;;;4996099;28;20030;-76
2023/06/13 03:18:47;;;;;;;15.50;7.53;;;;;;;;;;5007235;28;20045;-76
2023/06/13 03:21:13;;;;;;;8.50;5.22;;;;;;;;;;5001150;28;20027;-76
2023/06/13 03:23:40;;;;;;;6.78;5.43;;;;;;;;;;5000204;28;20045;-75
2023/06/13 03:26:06;;;;;;;7.38;4.95;;;;;;;;;;5008120;28;20403;-75
2023/06/13 03:28:32;;;;;;;8.38;5.55;;;;;;;;;;4995631;28;20444;-76
2023/06/13 03:31:00;;;;;;;7.55;4.60;;;;;;;;;;5005702;28;20022;-76
2023/06/13 03:33:26;;;;;;;5.25;4.75;;;;;;;;;;5002691;28;20488;-76
2023/06/13 03:35:52;;;;;;;6.50;4.78;;;;;;;;;;4998099;28;20034;-75
2023/06/13 03:38:18;;;;;;;7.57;5.30;;;;;;;;;;5008550;28;20033;-75
2023/06/13 03:40:44;;;;;;;14.38;5.88;;;;;;;;;;4995708;28;20407;-75
2023/06/13 03:43:10;;;;;;;6.63;5.43;;;;;;;;;;5003165;28;20034;-75
2023/06/13 03:45:36;;;;;;;7.05;4.78;;;;;;;;;;5003698;28;20033;-76
2023/06/13 03:48:02;;;;;;;5.93;4.97;;;;;;;;;;4995287;28;20023;-76
2023/06/13 03:50:28;;;;;;;5.07;4.47;;;;;;;;;;5008290;28;20109;-75
2023/06/13 03:52:54;;;;;;;8.85;5.47;;;;;;;;;;4998436;28;20030;-76
2023/06/13 03:55:21;;;;;;;6.28;4.50;;;;;;;;;;5002531;28;20030;-76
2023/06/13 03:57:47;;;;;;;8.85;4.82;;;;;;;;;;5004760;28;20022;-75
2023/06/13 04:00:13;;;;;;;13.40;4.68;;;;;;;;;;4994131;28;20026;-75
2023/06/13 04:02:39;;;;;;;6.97;4.30;;;;;;;;;;5006435;28;20121;-75
2023/06/13 04:05:07;;;;;;;6.10;4.22;;;;;;;;;;4999343;28;20488;-75
2023/06/13 04:07:33;;;;;;;5.05;3.78;;;;;;;;;;5009900;28;20513;-75
2023/06/13 04:10:03;;;;;;;8.75;4.47;;;;;;;;;;5011793;28;20117;-75
2023/06/13 04:12:30;;;;;;;6.38;4.00;;;;;;;;;;4995157;28;20065;-75
2023/06/13 04:14:56;;;;;;;5.30;3.80;;;;;;;;;;5004009;28;20031;-77
2023/06/13 04:17:22;;;;;;;5.88;4.05;;;;;;;;;;5001095;28;20026;-76
2023/06/13 04:19:51;;;;;;;11.23;3.55;;;;;;;;;;4998220;28;20037;-76
2023/06/13 04:22:17;;;;;;;4.68;4.05;;;;;;;;;;5008184;28;20026;-76
2023/06/13 04:24:43;;;;;;;6.70;3.60;;;;;;;;;;4996412;28;20029;-76
2023/06/13 04:27:13;;;;;;;9.90;4.75;;;;;;;;;;5003192;28;20477;-75
2023/06/13 04:29:40;;;;;;;4.75;3.92;;;;;;;;;;5003764;28;20068;-76
2023/06/13 04:32:07;;;;;;;5.68;4.10;;;;;;;;;;4995595;28;20026;-76
2023/06/13 04:34:36;;;;;;;5.20;3.50;;;;;;;;;;5007787;28;20485;-76
2023/06/13 04:37:03;;;;;;;11.18;4.72;;;;;;;;;;4998570;28;20064;-76
2023/06/13 04:39:30;;;;;;;6.45;4.07;;;;;;;;;;5000679;28;20374;-76
2023/06/13 04:42:01;;;;;;;5.65;3.80;;;;;;;;;;5005889;28;20048;-76
2023/06/13 04:44:28;;;;;;;5.43;3.95;;;;;;;;;;4994974;28;20031;-76
2023/06/13 04:46:57;;;;;;;6.80;4.07;;;;;;;;;;5004796;28;20030;-76
2023/06/13 04:49:25;;;;;;;5.00;3.75;;;;;;;;;;5001282;28;20022;-76
2023/06/13 04:51:54;;;;;;;5.82;3.80;;;;;;;;;;4997474;28;20022;-76
2023/06/13 04:54:21;;;;;;;5.32;3.47;;;;;;;;;;5009322;28;20018;-76
2023/06/13 04:56:47;;;;;;;10.00;3.80;;;;;;;;;;5000024;28;20045;-75
2023/06/13 04:59:13;;;;;;;5.85;3.55;;;;;;;;;;5003363;28;20022;-77
2023/06/13 05:01:39;;;;;;;5.45;3.70;;;;;;;;;;5014318;28;20042;-76
2023/06/13 05:04:06;;;;;;;6.57;4.00;;;;;;;;;;5014460;28;20077;-76
2023/06/13 05:06:34;;;;;;;7.57;4.35;;;;;;;;;;5014366;28;20051;-77
2023/06/13 05:09:00;;;;;;;9.55;4.53;;;;;;;;;;5014387;28;20022;-76
2023/06/13 05:11:26;;;;;;;7.88;3.53;;;;;;;;;;5004092;28;20030;-76
2023/06/13 05:13:52;;;;;;;5.85;4.00;;;;;;;;;;5008706;28;20121;-75
2023/06/13 05:16:18;;;;;;;4.85;3.50;;;;;;;;;;4996310;28;20026;-76
2023/06/13 05:18:46;;;;;;;7.18;3.47;;;;;;;;;;5007890;28;20057;-75
2023/06/13 05:21:16;;;;;;;7.57;3.55;;;;;;;;;;5003135;28;20018;-75
2023/06/13 05:23:43;;;;;;;6.90;3.95;;;;;;;;;;5001715;28;20507;-76
2023/06/13 05:26:10;;;;;;;8.20;3.80;;;;;;;;;;5010554;28;20137;-76
2023/06/13 05:28:36;;;;;;;7.30;3.85;;;;;;;;;;5013728;28;20083;-77
2023/06/13 05:31:02;;;;;;;6.55;3.67;;;;;;;;;;5007253;28;20030;-77
2023/06/13 05:33:28;;;;;;;4.85;3.33;;;;;;;;;;5005441;28;20033;-77
2023/06/13 05:35:53;;;;;;;5.22;3.42;;;26.20;34.40;;;;;;5000141;28;20026;-78
2023/06/13 05:38:19;;;;;;;6.57;3.47;;;26.40;34.50;;;;;;5010582;28;20101;-77
2023/06/13 05:40:45;;;;;;;6.68;3.47;;;27.40;33.10;;;;;;4999486;28;20061;-76
2023/06/13 05:43:12;;;;;;;4.95;3.53;;;27.40;32.90;;;;;;5006404;28;20031;-76
2023/06/13 05:45:38;;;;;;;10.07;4.20;;;27.90;31.90;;;;;;5006221;28;20017;-76
2023/06/13 05:48:04;;;;;;;6.50;3.63;;;27.90;31.30;;;;;;4998168;28;20388;-78
2023/06/13 05:50:30;;;;;;;3.65;3.03;;;27.40;32.20;;;;;;5009377;28;20030;-76
2023/06/13 05:52:55;;;;;;;5.40;3.53;;;27.10;32.30;;;;;;5000533;28;20069;-76
2023/06/13 05:55:21;;;;;;;4.38;3.25;;;27.00;32.10;;;;;;5004261;28;20133;-75
2023/06/13 05:57:46;;;;;;;6.13;3.42;;;26.70;33.00;;;;;;5006922;28;20026;-76
2023/06/13 06:00:13;;;;;;;5.18;3.42;;;26.80;32.60;;;;;;4997808;28;20046;-76
2023/06/13 06:02:43;;;;;;;4.78;3.17;;;27.50;31.70;;;;;;5009730;28;20400;-76
2023/06/13 06:05:08;;;;;;;4.07;3.00;;;28.30;31.00;;;;;;5001040;28;20022;-77
2023/06/13 06:07:35;;;;;;;11.23;3.53;;;28.60;29.40;;;;;;5013597;28;20032;-77
2023/06/13 06:10:03;;;;;;;4.30;3.03;;;29.10;29.80;;;;;;5015923;28;20085;-76
2023/06/13 06:12:29;;;;;;;7.45;4.05;;;31.10;26.70;;;;;;4995388;28;20033;-77
2023/06/13 06:14:54;;;;;;;10.82;4.68;;;31.90;25.60;;;;;;5001179;28;20418;-76
2023/06/13 06:17:20;;;;;;;7.35;4.20;;;32.80;25.20;;;;;;5004322;28;20030;-76
2023/06/13 06:19:47;;;;;;;8.57;4.00;;;32.20;25.30;;;;;;5006807;28;20407;-77
2023/06/13 06:22:13;;;;;;;4.20;3.42;;;30.80;26.80;;;;;;4997386;28;20054;-79
2023/06/13 06:24:39;;;;;;;6.95;3.83;;;30.70;26.50;;;;;;5009262;28;20116;-75
2023/06/13 06:27:05;;;;;;;9.73;4.38;;;30.70;26.60;;;;;;5001043;28;20021;-70
2023/06/13 06:29:31;;;;;;;6.40;3.88;;;;;;;;;;5002163;28;20671;-71
2023/06/13 06:31:57;;;;;;;9.23;3.92;;;;;;;;;;5007979;28;20029;-71
2023/06/13 06:34:23;;;;;;;7.75;4.13;;;;;;;;;;5006515;28;20113;-72
2023/06/13 06:36:50;;;;;;;7.57;4.03;;;;;;;;;;5011143;28;20153;-72
2023/06/13 06:39:16;;;;;;;7.25;4.28;;;;;;;;;;5011890;28;20388;-71
2023/06/13 06:41:42;;;;;;;9.85;4.13;;;;;;;;;;5000696;28;20069;-72
2023/06/13 06:44:08;;;;;;;8.07;4.60;;;;;;;;;;5009677;28;20022;-76
2023/06/13 06:46:37;;;;;;;9.73;4.25;;;;;;;;;;4996917;28;20050;-75
2023/06/13 06:49:03;;;;;;;9.65;4.03;;;;;;;;;;5006179;28;20079;-76
2023/06/13 06:51:29;;;;;;;9.48;3.70;;;;;;;;;;5003847;28;20022;-76
2023/06/13 06:53:56;;;;;;;9.07;3.78;;;29.10;30.30;;;;;;4998663;28;20024;-76
2023/06/13 06:56:22;;;;;;;9.73;3.97;;;29.40;29.10;;;;;;5009363;28;20112;-76
2023/06/13 06:58:48;;;;;;;8.48;3.92;;;28.30;30.60;;;;;;4998171;28;20029;-76
2023/06/13 07:01:15;;;;;;;8.93;3.92;;;28.00;31.60;;;;;;5003861;28;20456;-75
2023/06/13 07:03:41;;;;;;;10.10;3.90;;;;;;;;;;5005305;28;20064;-75
2023/06/13 07:06:07;;;;;;;8.73;4.25;;;;;;;;;;5001214;28;20029;-75
2023/06/13 07:08:33;;;;;;;14.30;4.38;;;;;;;;;;5012107;28;20112;-76
2023/06/13 07:11:01;;;;;;;7.20;3.90;;;;;;;;;;5005777;28;20018;-75
2023/06/13 07:13:27;;;;;;;6.80;3.90;;;;;;;;;;5003194;28;20097;-77
2023/06/13 07:15:53;;;;;;;9.85;3.80;;;;;;;;;;4999349;28;20106;-80
2023/06/13 07:18:19;;;;;;;9.32;3.83;;;;;;;;;;5008862;28;20439;-75
2023/06/13 07:20:45;;;;;;;9.65;3.67;;;28.00;31.50;;;;;;4991404;28;20022;-76
2023/06/13 07:23:12;;;;;;;10.48;3.67;;;29.00;29.40;;;;;;4991130;28;20054;-76
2023/06/13 07:25:40;;;;;;;6.47;3.22;;;31.00;27.20;;;;;;4992063;28;20069;-76
2023/06/13 07:28:07;;;;;;;6.68;3.67;;;32.80;25.10;;;;;;4991497;28;20182;-75
2023/06/13 07:30:32;;;;;;;8.20;3.17;;;32.90;25.70;;;;;;4989853;28;20035;-76
2023/06/13 07:32:58;;;;;;;7.13;3.28;;;34.20;23.60;;;;;;4990864;28;20025;-76
2023/06/13 07:35:24;;;;;;;5.28;3.47;;;;;;;;;;4990688;28;20030;-76
2023/06/13 07:37:53;;;;;;;7.35;3.42;;;33.20;23.70;;;;;;4990727;28;20030;-76
2023/06/13 07:40:21;;;;;;;11.07;3.30;;;32.80;24.40;;;;;;4989531;28;20524;-76
2023/06/13 07:42:49;;;;;;;8.80;3.72;;;30.60;26.20;;;;;;4991091;28;20030;-75
2023/06/13 07:45:15;;;;;;;6.40;3.70;;;28.60;28.40;;;;;;4992040;28;20030;-76
2023/06/13 07:47:42;;;;;;;7.93;3.25;;;;;;;;;;5039691;23;20427;-72
2023/06/13 07:50:08;;;;;;;5.93;3.60;;;;;;;;;;5031921;28;20048;-72
2023/06/13 07:52:34;;;;;;;6.45;3.38;;;;;;;;;;5031673;28;20029;-72
2023/06/13 07:55:00;;;;;;;7.78;3.78;;;;;;;;;;5031906;28;20048;-72
2023/06/13 07:57:26;;;;;;;5.53;3.00;;;;;;;;;;5031232;28;20495;-72
2023/06/13 07:59:54;;;;;;;12.40;3.70;;;;;;;;;;5031734;28;20030;-72
2023/06/13 08:02:20;;;;;;;9.35;3.22;;;;;;;;;;5031539;28;20075;-72
2023/06/13 08:04:46;;;;;;;7.50;3.38;;;;;;;;;;5031605;28;20388;-72
2023/06/13 08:07:12;;;;;;;9.13;3.42;;;;;;;;;;5031290;28;20033;-73
2023/06/13 08:09:38;;;;;;;6.18;3.28;;;;;;;;;;5031991;28;20026;-72
2023/06/13 08:12:06;;;;;;;7.10;3.40;;;;;;;;;;5031471;28;20399;-73
2023/06/13 08:14:32;;;;;;;6.93;3.55;;;;;;;;;;5031557;28;20030;-73
2023/06/13 08:16:57;;;;;;;7.55;3.22;;;34.30;22.90;;;;;;5030565;28;20029;-73
2023/06/13 08:19:23;;;;;;;4.07;3.00;;;34.70;22.00;;;;;;5031474;28;20025;-72
2023/06/13 08:21:48;;;;;;;7.40;3.40;;;35.40;21.40;;;;;;5031417;28;20033;-73
2023/06/13 08:24:14;;;;;;;7.97;3.05;;;36.20;20.60;;;;;;5031387;28;20029;-73
2023/06/13 08:26:40;;;;;;;6.85;3.47;;;37.60;18.70;;;;;;5031195;28;20022;-73
2023/06/13 08:29:06;;;;;;;4.25;3.00;;;38.00;19.30;;;;;;5032903;28;20033;-73
2023/06/13 08:31:32;;;;;;;6.35;3.00;;;37.70;17.80;;;;;;5035602;28;20040;-73
2023/06/13 08:33:59;;;;;;;5.38;3.53;;;37.00;18.90;;;;;;5035556;28;20031;-72
2023/06/13 08:36:25;;;;;;;7.28;3.40;;;35.10;18.60;;;;;;5033862;28;20103;-73
2023/06/13 08:38:52;;;;;;;7.53;3.13;;;35.90;19.10;;;;;;5035114;28;20021;-72
2023/06/13 08:41:18;;;;;;;6.13;2.90;;;35.90;19.60;;;;;;5035086;28;20109;-73
2023/06/13 08:43:45;;;;;;;5.95;3.10;;;36.90;19.80;;;;;;5035282;28;20104;-73
2023/06/13 08:46:11;;;;;;;4.47;3.10;;;37.60;17.90;;;;;;5034861;28;20021;-74
2023/06/13 08:48:37;;;;;;;7.05;2.88;;;37.50;18.10;;;;;;5034992;28;20029;-73
2023/06/13 08:51:05;;;;;;;8.13;3.05;;;38.00;17.90;;;;;;5035070;28;20074;-73
2023/06/13 08:53:36;;;;;;;6.45;2.67;;;38.70;18.10;;;;;;5035070;28;20030;-72
2023/06/13 08:56:06;;;;;;;12.05;3.25;;;38.30;17.80;;;;;;5034945;28;20047;-73
2023/06/13 08:58:38;;;;;;;3.80;2.97;;;37.60;18.20;;;;;;5034658;28;20029;-73
2023/06/13 09:01:06;;;;;;;4.60;2.85;;;37.20;19.40;;;;;;5034783;28;20034;-72
2023/06/13 09:03:33;;;;;;;6.47;2.90;;;37.40;18.50;;;;;;5034688;28;20048;-72
2023/06/13 09:06:00;;;;;;;7.18;2.97;;;36.80;19.60;;;;;;5034536;28;20036;-73
2023/06/13 09:08:27;;;;;;;9.75;3.50;;;35.90;18.90;;;;;;5034639;28;20391;-72
2023/06/13 09:10:54;;;;;;;5.38;3.28;;;32.70;22.40;;;;;;5033372;28;20476;-72
2023/06/13 09:13:22;;;;;;;5.90;3.20;;;31.40;23.40;;;;;;5034579;28;20033;-72
2023/06/13 09:15:47;;;;;;;10.77;3.25;;;31.50;24.80;;;;;;5034362;28;20533;-73
2023/06/13 09:18:14;;;;;;;7.18;3.20;;;32.10;23.60;;;;;;5033073;28;20062;-72
2023/06/13 09:20:40;;;;;;;7.53;3.38;;;31.40;24.30;;;;;;5034826;28;20040;-72
2023/06/13 09:23:06;;;;;;;6.25;2.63;;;31.50;24.90;;;;;;5034373;28;20487;-72
2023/06/13 09:25:35;;;;;;;9.45;2.97;;;31.10;25.40;;;;;;5034237;28;20065;-73
2023/06/13 09:28:35;;;;;;;4.55;3.08;;;31.70;25.20;;;;;;5032660;28;20097;-72
2023/06/13 09:31:01;;;;;;;7.97;2.70;;;32.70;23.50;;;;;;5034420;28;20021;-72
2023/06/13 09:33:27;;;;;;;7.93;3.05;;;32.90;22.50;;;;;;5034358;28;20408;-73
2023/06/13 09:35:53;;;;;;;5.78;2.92;;;33.10;21.10;;;;;;5034026;28;20381;-73
2023/06/13 09:38:23;;;;;;;3.75;2.92;;;31.80;22.30;;;;;;5033797;28;20029;-73
2023/06/13 09:40:50;;;;;;;4.35;2.90;;;31.40;21.10;;;;;;5032767;28;20028;-73
2023/06/13 09:43:16;;;;;;;9.65;3.20;;;30.90;21.70;;;;;;5033915;28;20036;-73
2023/06/13 09:45:46;;;;;;;5.95;2.70;;;30.50;22.10;;;;;;5034144;28;20052;-73
2023/06/13 09:48:12;;;;;;;6.17;3.20;;;30.30;22.60;;;;;;5033431;28;20037;-73
2023/06/13 09:50:40;;;;;;;4.15;2.55;;;30.40;22.50;;;;;;5033985;28;20682;-73
2023/06/13 09:53:07;;;;;;;11.70;3.08;;;30.80;22.30;;;;;;5033836;28;20522;-73
2023/06/13 09:55:32;;;;;;;5.45;3.20;;;30.90;22.00;;;;;;5033701;28;20487;-73
2023/06/13 09:57:58;;;;;;;5.13;3.03;;;30.90;21.60;;;;;;5033381;28;20033;-73
2023/06/13 10:00:24;;;;;;;7.15;3.38;;;;;;;;;;5033768;28;20048;-73
2023/06/13 10:02:50;;;;;;;13.40;2.78;;;;;;;;;;5033761;28;20071;-73
2023/06/13 10:05:16;;;;;;;7.82;3.03;;;;;;;;;;5033579;28;20025;-73
2023/06/13 10:07:42;;;;;;;8.27;3.17;;;;;;;;;;5033321;28;20024;-72
2023/06/13 10:10:09;;;;;;;5.85;2.67;;;;;;;;;;5033666;28;20021;-73
2023/06/13 10:12:38;;;;;;;8.13;2.80;;;;;;;;;;5033668;28;20025;-73
2023/06/13 10:15:06;;;;;;;6.82;3.00;;;;;;;;;;5033555;28;20087;-73
2023/06/13 10:17:37;;;;;;;7.40;3.03;;;;;;;;;;5033298;28;20114;-73
2023/06/13 10:20:10;;;;;;;6.05;3.15;;;;;;;;;;5033632;28;20032;-73
2023/06/13 10:22:37;;;;;;;6.15;4.80;;;;;;;;;;5033214;28;20026;-73
2023/06/13 10:25:03;;;;;;;8.55;3.15;;;;;;;;;;5033253;28;20059;-72
2023/06/13 10:27:29;;;;;;;6.75;3.50;;;;;;;;;;5032977;28;20508;-73
2023/06/13 10:29:55;;;;;;;5.03;3.38;;;;;;;;;;5033234;28;20407;-72
2023/06/13 10:32:24;;;;;;;4.50;2.75;;;;;;;;;;5031987;28;20025;-72
2023/06/13 10:34:57;;;;;;;8.98;3.63;;;;;;;;;;5033172;28;20029;-72
2023/06/13 10:37:23;;;;;;;7.60;3.20;;;;;;;;;;5031130;28;20411;-73
2023/06/13 10:39:52;;;;;;;11.55;3.30;;;;;;;;;;5031522;28;20021;-72
2023/06/13 10:42:24;;;;;;;7.13;3.70;;;;;;;;;;5032761;28;20029;-72
2023/06/13 10:44:53;;;;;;;7.47;3.10;;;;;;;;;;5032784;28;20053;-73
2023/06/13 10:47:19;;;;;;;5.68;3.00;;;;;;;;;;5032207;28;20065;-72
2023/06/13 10:49:47;;;;;;;6.22;3.63;;;;;;;;;;5032680;28;20105;-72
2023/06/13 10:52:13;;;;;;;6.97;3.42;;;;;;;;;;5032437;28;20045;-72
2023/06/13 10:54:40;;;;;;;8.77;3.60;;;;;;;;;;5032587;28;20025;-72
2023/06/13 10:57:07;;;;;;;6.53;3.78;;;;;;;;;;5032318;28;20026;-72
2023/06/13 10:59:37;;;;;;;10.38;3.47;;;;;;;;;;5032647;28;20029;-73
2023/06/13 11:02:03;;;;;;;8.45;3.83;;;;;;;;;;5032386;28;20028;-72
2023/06/13 11:04:29;;;;;;;6.82;3.70;;;;;;;;;;5032390;28;20112;-72
2023/06/13 11:07:14;;;;;;;4.63;3.00;;;;;;;;;;5032450;28;20030;-73
2023/06/13 11:09:40;;;;;;;6.25;2.97;;;;;;;;;;5032493;28;20032;-73
2023/06/13 11:12:07;;;;;;;6.47;3.50;;;;;;;;;;5032404;28;20105;-73
2023/06/13 11:14:37;;;;;;;6.95;3.15;;;;;;;;;;5032282;28;20025;-72
2023/06/13 11:17:03;;;;;;;7.43;4.13;;;;;;;;;;5032110;28;20025;-73
2023/06/13 11:19:30;;;;;;;9.05;3.75;;;;;;;;;;5032262;28;20052;-72
2023/06/13 11:21:59;;;;;;;7.85;3.70;;;;;;;;;;5032446;28;20438;-71
2023/06/13 11:24:27;;;;;;;12.75;4.25;;;;;;;;;;5032044;28;20056;-72
2023/06/13 11:26:55;;;;;;;14.77;4.10;;;;;;;;;;5031928;28;20017;-73
2023/06/13 11:29:21;;;;;;;10.13;4.25;;;;;;;;;;5031782;28;20025;-71
2023/06/13 11:31:51;;;;;;;10.27;3.90;;;;;;;;;;5033147;28;20057;-72
2023/06/13 11:34:18;;;;;;;5.85;3.53;;;;;;;;;;5032662;28;20049;-71
2023/06/13 11:36:44;;;;;;;8.65;3.65;;;;;;;;;;5032041;28;20022;-72
2023/06/13 11:39:21;;;;;;;9.70;3.92;;;;;;;;;;5030298;28;20033;-72
2023/06/13 11:41:47;;;;;;;6.97;4.60;;;;;;;;;;5031695;28;20018;-72
2023/06/13 11:44:13;;;;;;;7.60;4.38;;;;;;;;;;5031653;28;20052;-71
2023/06/13 11:46:43;;;;;;;6.72;3.80;;;;;;;;;;5031495;28;20037;-71
2023/06/13 11:49:12;;;;;;;10.13;3.72;;;;;;;;;;5031478;28;20018;-71
2023/06/13 11:51:38;;;;;;;8.43;3.55;;;;;;;;;;5031502;28;20033;-71
2023/06/13 11:54:04;;;;;;;6.88;3.05;;;;;;;;;;5031611;28;20022;-71
2023/06/13 11:56:34;;;;;;;6.35;3.35;;;;;;;;;;5031392;28;20396;-71
2023/06/13 11:59:00;;;;;;;7.35;4.03;;;;;;;;;;5031175;28;20514;-71
2023/06/13 12:01:27;;;;;;;25.52;7.20;;;;;;;;;;5031478;28;20033;-72
2023/06/13 12:03:59;;;;;;;8.32;3.72;;;;;;;;;;5030600;28;20518;-72
2023/06/13 12:06:26;;;;;;;7.45;4.82;;;;;;;;;;5031262;28;20037;-72
2023/06/13 12:08:52;;;;;;;60.65;11.10;;;;;;;;;;5030920;28;20024;-72
2023/06/13 12:11:20;;;;;;;6.38;3.33;;;;;;;;;;5031288;28;20018;-72
2023/06/13 12:14:12;;;;;;;30.08;9.13;;;;;;;;;;5031676;28;20029;-73
2023/06/13 12:16:38;;;;;;;7.65;3.58;;;;;;;;;;5030170;28;20033;-73
2023/06/13 12:19:06;;;;;;;8.00;3.15;;;;;;;;;;5029681;28;20446;-72
2023/06/13 12:21:32;;;;;;;6.47;3.63;;;;;;;;;;5031320;28;20101;-72
2023/06/13 12:24:01;;;;;;;7.97;3.17;;;;;;;;;;5031523;28;20033;-73
2023/06/13 12:26:28;;;;;;;7.90;3.30;;;;;;;;;;5031269;28;20105;-72
2023/06/13 12:28:55;;;;;;;4.35;3.25;;;;;;;;;;5031160;28;20044;-72
2023/06/13 12:31:38;;;;;;;7.95;3.67;;;;;;;;;;5029715;28;20022;-73
2023/06/13 12:34:45;;;;;;;5.00;3.45;;;;;;;;;;5030913;28;20021;-72
2023/06/13 12:37:12;;;;;;;11.18;3.13;;;;;;;;;;5019795;28;20034;-72
2023/06/13 12:39:38;;;;;;;6.07;3.40;;;;;;;;;;5029140;28;20041;-73
2023/06/13 12:42:05;;;;;;;3.10;2.80;;;;;;;;;;5030601;28;20030;-72
2023/06/13 12:44:33;;;;;;;6.50;3.13;;;;;;;;;;5030729;28;20021;-72
2023/06/13 12:47:02;;;;;;;7.85;3.55;;;;;;;;;;5030242;28;20388;-72
2023/06/13 12:49:34;;;;;;;5.70;3.22;;;;;;;;;;5030645;28;20143;-72
2023/06/13 12:52:00;;;;;;;9.23;3.50;;;;;;;;;;5030738;28;20029;-72
2023/06/13 12:54:26;;;;;;;6.07;3.58;;;;;;;;;;5030613;28;20400;-72
2023/06/13 12:57:02;;;;;;;9.48;3.47;;;;;;;;;;5030428;28;20124;-72
2023/06/13 12:59:28;;;;;;;9.18;3.40;;;;;;;;;;5030098;28;20028;-72
2023/06/13 13:01:54;;;;;;;6.47;3.60;;;;;;;;;;5030500;28;20037;-72
2023/06/13 13:04:27;;;;;;;7.35;3.58;;;;;;;;;;5030674;28;20072;-73
2023/06/13 13:06:53;;;;;;;10.35;3.78;;;;;;;;;;5030772;28;20102;-72
2023/06/13 13:09:19;;;;;;;8.18;3.33;;;;;;;;;;5029911;28;20104;-72
2023/06/13 13:11:45;;;;;;;9.00;3.40;;;;;;;;;;5030534;28;20025;-71
2023/06/13 13:14:11;;;;;;;7.45;3.03;;;;;;;;;;5029160;28;20021;-72
2023/06/13 13:16:37;;;;;;;7.03;3.50;;;;;;;;;;5034321;28;20034;-72
2023/06/13 13:19:03;;;;;;;6.85;3.60;;;;;;;;;;5033510;28;20645;-72
2023/06/13 13:21:29;;;;;;;7.18;3.20;;;;;;;;;;5032860;28;20033;-72
2023/06/13 13:23:55;;;;;;;6.18;3.42;;;;;;;;;;5034081;28;20534;-71
2023/06/13 13:26:21;;;;;;;10.10;3.47;;;;;;;;;;5033964;28;20083;-72
2023/06/13 13:28:47;;;;;;;5.10;2.80;;;;;;;;;;5032956;28;20029;-72
2023/06/13 13:31:14;;;;;;;6.90;3.35;;;;;;;;;;5034060;28;20026;-72
2023/06/13 13:33:40;;;;;;;4.88;3.33;;;;;;;;;;5030479;28;20440;-71
2023/06/13 13:36:06;;;;;;;6.80;3.42;;;;;;;;;;5032765;28;20426;-71
2023/06/13 13:38:32;;;;;;;6.43;3.85;;;;;;;;;;5032298;28;20025;-72
2023/06/13 13:40:59;;;;;;;8.43;3.78;;;;;;;;;;5032508;28;20028;-72
2023/06/13 13:43:25;;;;;;;5.88;3.40;;;;;;;;;;5032712;28;20026;-71
2023/06/13 13:45:51;;;;;;;6.05;3.17;;;;;;;;;;5033215;28;20025;-72
2023/06/13 13:48:17;;;;;;;7.15;3.47;;;;;;;;;;5056142;22;20045;-75
2023/06/13 13:50:44;;;;;;;7.60;3.67;;;;;;;;;;5032567;28;20022;-75
2023/06/13 13:53:14;;;;;;;8.55;3.97;;;;;;;;;;5032488;28;20510;-75
2023/06/13 13:55:40;;;;;;;6.53;3.45;;;;;;;;;;5032285;28;20053;-75
2023/06/13 13:58:09;;;;;;;5.35;3.47;;;;;;;;;;5031486;28;20506;-75
2023/06/13 14:00:35;;;;;;;5.47;3.13;;;;;;;;;;5033038;28;20075;-74
2023/06/13 14:03:01;;;;;;;3.28;2.97;;;;;;;;;;5033457;28;20036;-75
2023/06/13 14:05:27;;;;;;;6.05;3.53;;;;;;;;;;5033250;28;20114;-74
2023/06/13 14:07:53;;;;;;;9.38;3.55;;;;;;;;;;5032718;28;20076;-74
2023/06/13 14:10:19;;;;;;;8.27;4.38;;;;;;;;;;5031807;28;20021;-74
2023/06/13 14:12:45;;;;;;;8.13;4.03;;;;;;;;;;5033470;28;20021;-74
2023/06/13 14:15:11;;;;;;;4.68;3.47;;;;;;;;;;5032865;28;20021;-74